Time;durP1;ratioP1;P1;durP2;ratioP2;P2;SDS_P1;SDS_P2;PMS_P1;PMS_P2;Temp;Humidity;BMP_temperature;BMP_pressure;BME280_temperature;BME280_humidity;BME280_pressure;Samples;Min_cycle;Max_cycle;Signal;HPM_P1;HPM_P2
2023/09/09 00:00:22;;;;;;;11.12;3.40;;;;;;;24.68;30.57;100119.88;1714768;82;21351;-78
2023/09/09 00:03:28;;;;;;;6.15;3.02;;;;;;;24.81;30.41;100121.89;1692889;84;21374;-78
2023/09/09 00:06:34;;;;;;;14.10;3.47;;;;;;;24.86;30.33;100112.12;1693119;84;22169;-79
2023/09/09 00:09:41;;;;;;;14.38;3.20;;;;;;;24.91;30.27;100102.34;1694461;84;21626;-79
2023/09/09 00:12:47;;;;;;;13.98;3.33;;;;;;;24.90;30.27;100099.27;1694752;84;21316;-79
2023/09/09 00:15:53;;;;;;;15.35;3.52;;;;;;;24.98;30.15;100103.77;1716815;83;21902;-79
2023/09/09 00:19:00;;;;;;;8.45;3.25;;;;;;;25.00;30.10;100093.69;1700720;83;21893;-79
2023/09/09 00:22:06;;;;;;;10.98;4.47;;;;;;;25.05;30.05;100092.86;1724183;83;21391;-79
2023/09/09 00:25:13;;;;;;;10.50;3.35;;;;;;;25.16;29.92;100088.41;1695889;83;21359;-79
2023/09/09 00:28:20;;;;;;;7.72;3.12;;;;;;;25.07;29.99;100080.28;1695231;84;21315;-79
2023/09/09 00:31:19;;;;;;;14.33;3.42;;;;;;;25.19;29.85;100087.86;1694950;84;21316;-79
2023/09/09 00:34:11;;;;;;;12.50;3.50;;;;;;;25.03;29.98;100081.95;1694976;84;21324;-79
2023/09/09 00:37:17;;;;;;;10.00;3.20;;;;;;;24.98;30.08;100082.78;1694798;84;21343;-79
2023/09/09 00:40:22;;;;;;;9.78;3.40;;;;;;;25.17;29.88;100088.72;1694702;84;21352;-79
2023/09/09 00:43:28;;;;;;;6.10;3.30;;;;;;;25.03;30.04;100087.55;1695122;84;21315;-78
2023/09/09 00:46:33;;;;;;;17.10;3.80;;;;;;;24.99;30.16;100085.02;1700614;82;21410;-78
2023/09/09 00:49:39;;;;;;;18.57;4.03;;;;;;;24.91;30.31;100081.36;1738197;82;22559;-78
2023/09/09 00:52:47;;;;;;;17.32;3.70;;;;;;;24.93;30.31;100076.31;1737882;82;21639;-79
2023/09/09 00:55:52;;;;;;;7.78;3.62;;;;;;;24.85;30.42;100077.71;1737164;82;21339;-78
2023/09/09 00:58:58;;;;;;;8.15;3.72;;;;;;;24.74;30.56;100074.03;1738111;82;21367;-79
2023/09/09 01:02:04;;;;;;;13.20;3.12;;;;;;;24.62;30.78;100067.86;1728641;83;21327;-78
2023/09/09 01:05:14;;;;;;;12.50;3.60;;;;;;;24.73;30.62;100068.16;1728358;83;21393;-78
2023/09/09 01:08:21;;;;;;;8.28;3.45;;;;;;;24.67;30.67;100066.48;1728495;83;21937;-79
2023/09/09 01:11:26;;;;;;;10.25;3.50;;;;;;;24.67;30.66;100069.27;1697222;83;21355;-78
2023/09/09 01:14:33;;;;;;;17.20;3.90;;;;;;;24.39;31.00;100064.14;1727159;82;21316;-78
2023/09/09 01:17:40;;;;;;;12.20;3.75;;;;;;;24.25;31.18;100063.77;1732576;82;21332;-78
2023/09/09 01:20:46;;;;;;;12.03;2.98;;;;;;;24.29;31.14;100060.72;1732700;82;21312;-79
2023/09/09 01:23:52;;;;;;;12.18;3.58;;;;;;;24.33;31.14;100067.45;1730061;82;21323;-79
2023/09/09 01:26:58;;;;;;;17.30;4.10;;;;;;;24.43;30.94;100056.89;1724493;83;21338;-78
2023/09/09 01:30:04;;;;;;;10.78;4.12;;;;;;;24.50;30.84;100051.88;1715621;83;21311;-78
2023/09/09 01:33:10;;;;;;;5.65;3.27;;;;;;;24.45;30.88;100050.46;1703266;84;21315;-78
2023/09/09 01:36:16;;;;;;;10.08;3.58;;;;;;;24.42;30.95;100055.22;1702568;84;21324;-78
2023/09/09 01:39:21;;;;;;;9.10;3.80;;;;;;;24.41;30.98;100049.33;1704389;83;21289;-79
2023/09/09 01:42:27;;;;;;;11.30;3.77;;;;;;;24.39;31.00;100043.18;1702564;84;21337;-78
2023/09/09 01:45:34;;;;;;;13.83;4.28;;;;;;;24.31;31.12;100043.67;1703221;84;21384;-79
2023/09/09 01:48:40;;;;;;;9.63;3.65;;;;;;;24.09;31.30;100043.31;1708030;82;21341;-78
2023/09/09 01:51:47;;;;;;;6.60;3.35;;;;;;;23.94;31.57;100037.06;1713489;83;21364;-78
2023/09/09 01:54:52;;;;;;;10.82;3.70;;;;;;;23.78;31.82;100029.73;1716144;82;21881;-78
2023/09/09 01:57:57;;;;;;;12.98;4.28;;;;;;;23.85;31.78;100030.87;1690225;85;21372;-78
2023/09/09 02:01:03;;;;;;;20.02;4.35;;;;;;;23.85;31.79;100031.70;1739080;82;21320;-78
2023/09/09 02:04:09;;;;;;;10.08;4.22;;;;;;;23.80;31.83;100029.45;1743490;82;21859;-79
2023/09/09 02:07:15;;;;;;;21.75;5.03;;;;;;;23.63;32.17;100030.45;1742314;82;21366;-78
2023/09/09 02:10:20;;;;;;;13.58;4.33;;;;;;;23.55;32.32;100030.94;1742725;82;21284;-77
2023/09/09 02:13:25;;;;;;;17.92;4.28;;;;;;;23.49;32.47;100031.19;1741933;82;21331;-77
2023/09/09 02:16:31;;;;;;;7.90;3.85;;;;;;;23.54;32.33;100025.08;1712070;83;21319;-77
2023/09/09 02:19:37;;;;;;;15.53;3.90;;;;;;;23.46;32.42;100019.99;1712260;83;21331;-77
2023/09/09 02:22:43;;;;;;;14.68;4.05;;;;;;;23.33;32.61;100021.84;1713758;83;21660;-77
2023/09/09 02:25:51;;;;;;;11.43;4.53;;;;;;;23.49;32.35;100020.02;1713931;82;21335;-78
2023/09/09 02:28:56;;;;;;;8.38;3.80;;;;;;;23.49;32.35;100022.26;1712282;83;21311;-78
2023/09/09 02:32:01;;;;;;;13.50;4.30;;;;;;;23.47;32.39;100025.85;1713380;83;21319;-78
2023/09/09 02:35:08;;;;;;;18.50;4.15;;;;;;;23.46;32.41;100018.59;1713510;83;21661;-78
2023/09/09 02:38:14;;;;;;;10.55;3.83;;;;;;;23.42;32.45;100018.28;1715813;82;21383;-78
2023/09/09 02:41:19;;;;;;;18.57;3.62;;;;;;;23.40;32.47;100012.70;1741689;82;21331;-78
2023/09/09 02:44:25;;;;;;;18.55;3.98;;;;;;;23.14;32.84;100004.12;1737273;82;21330;-78
2023/09/09 02:47:31;;;;;;;12.20;3.50;;;;;;;23.06;32.97;100007.42;1724978;83;21354;-78
2023/09/09 02:50:36;;;;;;;17.32;4.45;;;;;;;23.04;32.98;100001.80;1738296;81;21363;-78
2023/09/09 02:53:42;;;;;;;15.55;3.92;;;;;;;22.96;33.07;99997.58;1712942;82;21349;-78
2023/09/09 02:56:49;;;;;;;14.55;3.90;;;;;;;23.01;32.99;100000.41;1740916;82;21306;-78
2023/09/09 02:59:54;;;;;;;15.58;3.67;;;;;;;23.01;32.85;100000.93;1752944;81;21851;-78
2023/09/09 03:03:00;;;;;;;24.52;3.52;;;;;;;23.10;32.76;99996.02;1771447;81;21378;-78
2023/09/09 03:06:07;;;;;;;14.13;4.22;;;;;;;23.07;32.82;100001.28;1771607;81;21303;-78
2023/09/09 03:09:13;;;;;;;16.20;3.62;;;;;;;23.13;32.79;100000.20;1759198;81;21299;-78
2023/09/09 03:12:20;;;;;;;8.60;4.20;;;;;;;23.15;32.79;100001.64;1748564;82;21327;-78
2023/09/09 03:15:26;;;;;;;10.48;4.58;;;;;;;23.24;32.63;100003.91;1762843;81;21319;-78
2023/09/09 03:18:32;;;;;;;16.07;4.40;;;;;;;23.16;32.64;100006.10;1770686;81;21347;-78
2023/09/09 03:21:37;;;;;;;8.50;3.87;;;;;;;23.04;32.96;100005.43;1771814;81;21303;-78
2023/09/09 03:24:43;;;;;;;11.03;3.60;;;;;;;22.83;33.24;100006.34;1754556;81;21537;-78
2023/09/09 03:27:49;;;;;;;10.32;4.42;;;;;;;22.80;33.38;100009.09;1747936;82;21925;-78
2023/09/09 03:31:03;;;;;;;17.60;4.85;;;;;;;22.98;33.21;100006.50;1748564;82;21295;-78
2023/09/09 03:34:09;;;;;;;16.82;4.10;;;;;;;23.14;33.02;100004.12;1747841;82;21367;-78
2023/09/09 03:37:15;;;;;;;18.07;4.37;;;;;;;23.16;33.03;100009.45;1747207;80;22660;-78
2023/09/09 03:40:21;;;;;;;6.67;3.60;;;;;;;23.37;32.82;100011.83;1741192;82;21309;-78
2023/09/09 03:43:26;;;;;;;13.60;3.83;;;;;;;23.49;32.65;100014.44;1741108;82;21328;-78
2023/09/09 03:46:34;;;;;;;20.30;4.55;;;;;;;23.57;32.63;100006.94;1741079;82;21934;-78
2023/09/09 03:49:39;;;;;;;14.83;4.10;;;;;;;23.60;32.68;100005.84;1739582;82;21685;-78
2023/09/09 03:52:45;;;;;;;14.20;4.67;;;;;;;23.74;32.65;100009.59;1725252;83;21316;-78
2023/09/09 03:55:51;;;;;;;14.07;4.37;;;;;;;23.74;32.71;100006.80;1769364;81;21304;-79
2023/09/09 03:58:58;;;;;;;18.48;4.47;;;;;;;23.77;32.75;100011.30;1768405;81;21311;-79
2023/09/09 04:02:05;;;;;;;21.35;4.72;;;;;;;23.84;32.75;100010.48;1769451;81;21937;-78
2023/09/09 04:05:12;;;;;;;20.57;4.40;;;;;;;23.91;32.74;100006.06;1768408;81;21351;-78
2023/09/09 04:08:18;;;;;;;14.05;4.90;;;;;;;23.94;32.77;100017.52;1768793;81;21350;-78
2023/09/09 04:11:26;;;;;;;12.40;4.10;;;;;;;24.13;32.47;100017.88;1769354;81;21304;-78
2023/09/09 04:14:32;;;;;;;15.48;4.58;;;;;;;24.20;32.39;100019.05;1769078;81;21311;-78
2023/09/09 04:17:40;;;;;;;17.73;4.80;;;;;;;24.40;32.18;100015.50;1769294;81;21308;-79
2023/09/09 04:20:46;;;;;;;13.93;4.78;;;;;;;24.51;31.97;100022.80;1769192;81;21319;-79
2023/09/09 04:23:52;;;;;;;18.98;5.20;;;;;;;24.69;31.81;100013.89;1769685;81;21327;-78
2023/09/09 04:26:57;;;;;;;14.03;4.28;;;;;;;24.82;31.69;100008.89;1769493;81;21295;-78
2023/09/09 04:30:03;;;;;;;14.13;5.12;;;;;;;24.79;31.77;100010.27;1769349;80;22410;-78
2023/09/09 04:33:11;;;;;;;16.57;4.55;;;;;;;24.98;31.66;100011.97;1769386;81;21321;-79
2023/09/09 04:36:17;;;;;;;13.55;5.67;;;;;;;25.19;31.50;100010.91;1767659;81;21360;-78
2023/09/09 04:39:23;;;;;;;15.58;5.45;;;;;;;25.47;31.15;100012.84;1768147;81;21651;-79
2023/09/09 04:42:29;;;;;;;12.63;6.08;;;;;;;25.63;31.07;100015.05;1769580;81;21329;-79
2023/09/09 04:45:35;;;;;;;26.12;7.58;;;;;;;25.68;31.10;100010.27;1769468;81;21849;-79
2023/09/09 04:48:41;;;;;;;15.00;7.53;;;;;;;26.04;31.05;100012.17;1768848;81;21683;-79
2023/09/09 04:51:47;;;;;;;22.32;8.08;;;;;;;26.43;30.56;100010.33;1768966;79;21334;-79
2023/09/09 04:54:52;;;;;;;25.35;7.85;;;;;;;26.48;30.57;100008.06;1769355;81;21291;-79
2023/09/09 04:57:57;;;;;;;20.80;7.00;;;;;;;26.68;30.35;100009.36;1769263;81;21329;-79
2023/09/09 05:01:02;;;;;;;12.20;6.72;;;;;;;26.52;30.54;100006.36;1774494;81;21311;-78
2023/09/09 05:04:08;;;;;;;15.75;6.70;;;;;;;26.71;30.21;100007.36;1775250;81;21326;-79
2023/09/09 05:07:14;;;;;;;21.20;6.50;;;;;;;26.89;30.02;100009.21;1775121;81;21625;-78
2023/09/09 05:10:21;;;;;;;11.20;5.85;;;;;;;26.98;29.89;100006.05;1773388;81;21347;-78
2023/09/09 05:13:28;;;;;;;26.07;6.47;;;;;;;27.08;29.76;100010.21;1773515;81;21843;-79
2023/09/09 05:16:36;;;;;;;24.27;6.97;;;;;;;27.17;29.74;100004.81;1769242;81;21339;-79
2023/09/09 05:19:43;;;;;;;18.00;6.60;;;;;;;27.13;29.96;100012.97;1768419;81;21295;-78
2023/09/09 05:22:49;;;;;;;26.62;7.55;;;;;;;27.12;30.14;100012.70;1769872;81;21295;-78
2023/09/09 05:25:55;;;;;;;18.82;6.50;;;;;;;27.19;30.15;100010.95;1769556;81;21358;-78
2023/09/09 05:29:01;;;;;;;20.30;6.62;;;;;;;27.50;29.91;100012.93;1769974;79;21374;-78
2023/09/09 05:32:07;;;;;;;13.83;6.58;;;;;;;27.48;30.02;100016.05;1800755;79;21332;-78
2023/09/09 05:35:13;;;;;;;21.62;6.28;;;;;;;27.61;29.87;100014.49;1800078;79;21292;-78
2023/09/09 05:38:19;;;;;;;20.35;7.10;;;;;;;27.70;29.90;100019.73;1794230;79;21913;-78
2023/09/09 05:41:27;;;;;;;16.17;5.85;;;;;;;27.88;29.67;100019.58;1769080;81;21303;-79
2023/09/09 05:44:32;;;;;;;14.43;5.75;;;;;;;28.01;29.61;100015.23;1768739;81;21306;-78
2023/09/09 05:47:37;;;;;;;14.70;5.22;;;;;;;28.03;29.50;100032.05;1768647;81;21333;-78
2023/09/09 05:50:42;;;;;;;21.10;6.30;;;;;;;28.14;29.34;100028.56;1767194;81;21342;-78
2023/09/09 05:53:47;;;;;;;19.90;6.17;;;;;;;28.30;29.43;100041.02;1767660;79;21309;-79
2023/09/09 05:56:52;;;;;;;17.73;5.55;;;;;;;28.44;29.13;100045.64;1769993;81;21320;-78
2023/09/09 09:42:20;;;;;;;7.03;2.27;;;;;;;30.85;23.96;100206.82;1807510;78;21159;-79
2023/09/09 09:45:31;;;;;;;3.77;2.33;;;;;;;30.90;23.46;100217.17;1802092;79;21314;-79
2023/09/09 09:48:36;;;;;;;8.33;2.58;;;;;;;30.91;23.67;100220.25;1804063;79;21303;-80
2023/09/09 09:51:51;;;;;;;7.17;2.10;;;;;;;30.76;23.59;100224.23;1802593;79;21319;-79
2023/09/09 09:55:01;;;;;;;15.53;2.35;;;;;;;30.63;23.60;100223.06;1803426;79;21814;-78
2023/09/09 09:58:11;;;;;;;3.62;1.87;;;;;;;30.52;23.60;100220.16;1804411;79;21279;-79
2023/09/09 10:01:17;;;;;;;6.03;2.27;;;;;;;30.21;23.59;100224.13;1803307;79;21870;-78
2023/09/09 10:04:25;;;;;;;5.65;2.12;;;;;;;30.29;24.15;100217.18;1802144;79;21291;-78
2023/09/09 10:07:30;;;;;;;9.88;1.98;;;;;;;30.52;23.79;100218.17;1802307;79;21279;-78
2023/09/09 10:10:35;;;;;;;4.53;2.10;;;;;;;30.60;23.46;100237.78;1801919;79;21953;-78
2023/09/09 10:13:58;;;;;;;4.65;1.80;;;;;;;30.66;23.72;100251.22;1803871;79;22007;-79
2023/09/09 10:17:03;;;;;;;7.05;2.15;;;;;;;30.70;24.02;100253.11;1802913;79;21882;-79
2023/09/09 10:20:08;;;;;;;8.25;1.65;;;;;;;30.91;23.65;100256.95;1803647;79;21310;-78
2023/09/09 10:23:15;;;;;;;3.00;1.60;;;;;;;30.47;22.89;100258.34;1803875;79;21292;-78
2023/09/09 10:26:22;;;;;;;4.00;1.52;;;;;;;30.03;22.47;100261.06;1803794;79;21857;-79
2023/09/09 10:29:28;;;;;;;3.62;1.50;;;;;;;30.23;22.66;100236.77;1803956;79;21271;-79
2023/09/09 10:32:34;;;;;;;5.25;1.40;;;;;;;30.19;23.95;100251.22;1802416;79;21897;-78
2023/09/09 10:35:40;;;;;;;34.75;1.85;;;;;;;30.02;23.28;100250.94;1803944;79;21804;-79
2023/09/09 10:38:46;;;;;;;3.25;1.20;;;;;;;30.16;22.82;100282.02;1803016;79;21302;-78
2023/09/09 10:41:52;;;;;;;5.67;1.32;;;;;;;30.21;23.12;100249.52;1802883;79;21270;-78
2023/09/09 10:44:59;;;;;;;3.40;1.00;;;;;;;30.26;23.26;100254.50;1805173;78;21318;-79
2023/09/09 10:48:13;;;;;;;3.27;1.32;;;;;;;30.12;22.36;100269.67;1778650;80;21904;-78
2023/09/09 10:51:20;;;;;;;10.43;1.60;;;;;;;30.16;21.96;100261.73;1774903;80;22030;-78
2023/09/09 10:54:28;;;;;;;9.15;1.40;;;;;;;30.07;21.95;100260.72;1764022;80;21261;-78
2023/09/09 10:57:39;;;;;;;4.97;1.35;;;;;;;29.90;21.97;100258.44;1761764;81;21357;-79
2023/09/09 11:00:48;;;;;;;;;;;;;;;30.10;21.38;100247.97;1776640;80;21324;-78
2023/09/09 11:03:54;;;;;;;5.12;1.50;;;;;;;29.94;21.15;100264.31;1761847;81;20687;-78
2023/09/09 11:07:18;;;;;;;2.58;1.02;;;;;;;29.88;21.15;100259.88;1778892;79;21337;-78
2023/09/09 11:10:24;;;;;;;4.12;1.60;;;;;;;29.74;21.14;100271.95;1793247;80;21299;-78
2023/09/09 11:13:44;;;;;;;5.45;1.40;;;;;;;29.83;20.69;100269.83;1805870;79;21830;-78
2023/09/09 11:16:50;;;;;;;6.67;1.02;;;;;;;29.82;20.97;100270.98;1793344;80;22037;-77
2023/09/09 11:19:56;;;;;;;2.22;1.05;;;;;;;29.65;20.90;100290.69;1807410;79;21298;-78
2023/09/09 11:23:06;;;;;;;3.87;1.03;;;;;;;29.49;20.55;100287.20;1793439;80;21288;-78
2023/09/09 11:26:12;;;;;;;19.82;1.85;;;;;;;29.64;20.85;100268.42;1771621;80;21339;-80
2023/09/09 11:29:18;;;;;;;1.98;1.05;;;;;;;29.56;20.20;100288.28;1808400;79;21279;-80
2023/09/09 11:32:32;;;;;;;9.55;1.42;;;;;;;29.53;20.17;100280.39;1806943;79;21318;-80
2023/09/09 11:35:38;;;;;;;2.52;1.07;;;;;;;29.46;19.90;100282.77;1791983;80;21907;-77
2023/09/09 11:38:43;;;;;;;7.30;1.32;;;;;;;29.48;20.08;100291.73;1780693;79;21324;-80
2023/09/09 11:41:49;;;;;;;4.75;1.45;;;;;;;29.25;20.24;100285.83;1761293;81;21302;-80
2023/09/09 11:44:55;;;;;;;6.67;1.10;;;;;;;29.26;20.26;100298.77;1748243;80;21306;-80
2023/09/09 11:48:02;;;;;;;2.72;1.22;;;;;;;29.26;20.19;100289.48;1764544;80;21333;-80
2023/09/09 11:51:08;;;;;;;1.92;1.00;;;;;;;29.09;20.51;100279.30;1764672;81;21273;-80
2023/09/09 11:54:17;;;;;;;4.03;1.20;;;;;;;29.11;20.24;100286.29;1780995;80;21279;-80
2023/09/09 11:57:22;;;;;;;5.05;1.40;;;;;;;29.28;20.25;100286.64;1792166;80;21850;-80
2023/09/09 12:00:30;;;;;;;6.80;1.17;;;;;;;29.21;20.29;100293.77;1793567;80;21259;-80
2023/09/09 12:03:36;;;;;;;8.50;1.10;;;;;;;29.26;20.43;100290.89;1791792;80;22380;-80
2023/09/09 12:06:42;;;;;;;13.13;1.65;;;;;;;29.26;20.60;100293.70;1792469;80;21307;-80
2023/09/09 12:09:47;;;;;;;4.78;1.25;;;;;;;29.13;20.25;100309.38;1768498;80;21330;-80
2023/09/09 12:12:53;;;;;;;1.92;1.05;;;;;;;29.17;19.93;100311.00;1760496;81;21334;-80
2023/09/09 12:15:58;;;;;;;5.58;1.10;;;;;;;29.34;19.77;100314.74;1760129;81;21334;-78
2023/09/09 12:19:04;;;;;;;5.28;0.98;;;;;;;29.25;19.61;100308.36;1760727;81;21342;-79
2023/09/09 12:22:10;;;;;;;4.30;1.32;;;;;;;29.06;19.78;100305.23;1757824;81;21321;-79
2023/09/09 12:25:40;;;;;;;32.23;2.12;;;;;;;28.93;19.36;100330.67;1791156;80;21307;-79
2023/09/09 12:28:47;;;;;;;1.07;0.72;;;;;;;29.00;19.32;100350.91;1793872;80;21284;-79
2023/09/09 12:32:07;;;;;;;2.42;1.05;;;;;;;28.77;19.53;100324.38;1789373;80;21363;-79
2023/09/09 12:35:06;;;;;;;7.40;0.90;;;;;;;29.01;19.71;100328.65;1708158;83;22629;-79
2023/09/09 12:38:11;;;;;;;5.15;1.00;;;;;;;28.86;19.90;100345.68;1723722;83;21358;-79
2023/09/09 12:41:18;;;;;;;2.25;0.70;;;;;;;28.74;19.84;100315.94;1761623;81;21326;-79
2023/09/09 12:44:23;;;;;;;6.20;0.80;;;;;;;28.99;19.82;100333.75;1761092;81;22608;-79
2023/09/09 12:47:31;;;;;;;6.67;0.90;;;;;;;29.07;19.78;100347.16;1765455;79;21346;-79
2023/09/09 12:50:38;;;;;;;7.33;0.90;;;;;;;29.03;19.46;100330.05;1769534;80;21302;-79
2023/09/09 12:53:45;;;;;;;5.25;0.82;;;;;;;28.89;19.54;100332.39;1794555;79;21857;-79
2023/09/09 12:56:45;;;;;;;12.00;0.90;;;;;;;28.88;19.68;100356.06;1800397;79;21335;-79
2023/09/09 12:59:36;;;;;;;2.60;0.80;;;;;;;28.83;19.84;100341.47;1800754;79;21314;-79
2023/09/09 13:02:43;;;;;;;5.57;0.93;;;;;;;28.91;19.99;100356.31;1801396;79;21303;-79
2023/09/09 13:05:49;;;;;;;8.45;1.05;;;;;;;28.85;19.58;100344.01;1801876;79;21600;-78
2023/09/09 13:08:54;;;;;;;6.50;0.68;;;;;;;28.70;19.67;100344.97;1801566;79;21291;-78
2023/09/09 13:12:00;;;;;;;4.42;0.98;;;;;;;28.58;19.77;100346.78;1801038;79;21338;-79
2023/09/09 13:15:06;;;;;;;2.22;0.90;;;;;;;28.66;19.64;100350.38;1800103;79;21822;-79
2023/09/09 13:18:12;;;;;;;0.70;0.70;;;;;;;28.41;19.98;100358.45;1799826;79;21287;-79
2023/09/09 13:21:17;;;;;;;3.22;0.80;;;;;;;28.62;20.10;100359.13;1801809;79;21279;-79
2023/09/09 13:24:24;;;;;;;2.15;0.95;;;;;;;28.59;20.19;100361.12;1800315;79;21917;-79
2023/09/09 13:27:29;;;;;;;1.62;0.85;;;;;;;28.56;20.12;100351.88;1801094;79;21326;-79
2023/09/09 13:30:35;;;;;;;1.57;0.62;;;;;;;28.58;19.82;100372.11;1800067;79;21889;-79
2023/09/09 13:33:43;;;;;;;5.12;0.70;;;;;;;28.61;19.63;100363.09;1801235;79;21865;-79
2023/09/09 13:36:48;;;;;;;3.65;0.60;;;;;;;28.67;19.32;100370.91;1801453;79;21277;-79
2023/09/09 13:39:54;;;;;;;4.65;0.70;;;;;;;28.46;19.73;100367.41;1801564;79;21264;-80
2023/09/09 13:43:01;;;;;;;3.50;0.60;;;;;;;28.47;20.03;100362.09;1800858;79;21341;-78
2023/09/09 13:46:07;;;;;;;4.65;0.75;;;;;;;28.52;20.17;100374.12;1801498;79;21303;-78
2023/09/09 13:49:13;;;;;;;2.75;0.53;;;;;;;28.60;20.20;100372.64;1802638;78;21330;-79
2023/09/09 13:52:20;;;;;;;1.25;0.70;;;;;;;28.51;19.75;100383.72;1803569;79;21274;-77
2023/09/09 13:55:26;;;;;;;1.90;0.50;;;;;;;28.67;19.74;100377.95;1803618;79;21282;-78
2023/09/09 13:58:32;;;;;;;1.12;0.65;;;;;;;28.36;19.95;100389.44;1804414;79;21401;-77
2023/09/09 14:01:38;;;;;;;1.95;0.80;;;;;;;28.18;20.12;100388.15;1804476;79;21286;-77
2023/09/09 14:04:44;;;;;;;2.25;0.80;;;;;;;28.10;20.18;100397.19;1803331;79;21930;-77
2023/09/09 14:07:49;;;;;;;1.50;0.40;;;;;;;27.74;20.39;100396.54;1803960;79;21290;-78
2023/09/09 14:10:55;;;;;;;1.22;0.55;;;;;;;27.87;20.18;100413.34;1803833;79;21837;-77
2023/09/09 14:14:01;;;;;;;3.98;0.50;;;;;;;28.10;20.08;100401.98;1804716;79;21315;-78
2023/09/09 14:17:08;;;;;;;3.90;0.68;;;;;;;28.03;20.21;100406.50;1804938;79;21276;-78
2023/09/09 14:20:15;;;;;;;4.55;0.90;;;;;;;28.07;20.46;100409.01;1802648;79;21287;-78
2023/09/09 14:23:20;;;;;;;4.97;0.68;;;;;;;28.07;20.58;100420.25;1780045;79;21667;-78
2023/09/09 14:26:27;;;;;;;3.67;1.00;;;;;;;28.07;20.70;100419.42;1751029;82;21552;-77
2023/09/09 14:29:32;;;;;;;3.40;0.80;;;;;;;27.89;20.91;100421.75;1749679;82;22014;-78
2023/09/09 14:32:38;;;;;;;1.07;0.80;;;;;;;27.88;20.68;100434.13;1751047;82;22572;-77
2023/09/09 14:35:45;;;;;;;8.10;0.78;;;;;;;27.86;20.83;100429.94;1749647;82;21337;-77
2023/09/09 14:38:50;;;;;;;1.57;0.80;;;;;;;27.81;20.68;100439.23;1770616;79;21329;-77
2023/09/09 14:41:57;;;;;;;4.37;0.70;;;;;;;27.78;20.64;100432.77;1775156;81;21317;-78
2023/09/09 14:45:03;;;;;;;2.30;0.88;;;;;;;27.66;20.82;100443.45;1773445;81;21353;-78
2023/09/09 14:48:10;;;;;;;1.52;0.55;;;;;;;27.62;21.07;100453.05;1778935;79;21327;-78
2023/09/09 14:51:16;;;;;;;2.75;0.53;;;;;;;27.64;20.98;100446.56;1791638;79;21702;-79
2023/09/09 14:54:22;;;;;;;1.12;0.70;;;;;;;27.44;20.97;100459.28;1784231;79;21657;-79
2023/09/09 14:57:21;;;;;;;8.75;0.80;;;;;;;27.21;21.05;100452.30;1763458;81;21916;-79
2023/09/09 15:00:26;;;;;;;0.75;0.70;;;;;;;27.22;21.00;100456.78;1763734;81;21302;-77
2023/09/09 15:03:32;;;;;;;3.30;0.70;;;;;;;27.04;21.02;100458.17;1762876;81;21342;-77
2023/09/09 15:06:38;;;;;;;4.70;0.60;;;;;;;27.04;21.01;100471.37;1762764;81;21936;-77
2023/09/09 15:09:43;;;;;;;3.83;0.60;;;;;;;26.71;21.16;100467.44;1763099;80;21967;-79
2023/09/09 15:12:50;;;;;;;4.28;0.90;;;;;;;26.99;21.11;100475.02;1773052;80;21330;-79
2023/09/09 15:15:55;;;;;;;3.12;0.62;;;;;;;27.08;21.03;100468.28;1761248;81;21345;-77
2023/09/09 15:19:03;;;;;;;5.15;0.70;;;;;;;26.96;21.03;100486.80;1762145;81;21670;-77
2023/09/09 15:22:09;;;;;;;3.92;0.62;;;;;;;26.94;21.04;100482.05;1773689;80;21321;-77
2023/09/09 15:25:16;;;;;;;3.17;0.62;;;;;;;26.82;21.26;100496.37;1796323;79;21889;-78
2023/09/09 15:28:21;;;;;;;3.12;0.65;;;;;;;26.73;21.47;100497.48;1798571;79;21283;-78
2023/09/09 15:31:26;;;;;;;1.82;0.68;;;;;;;26.47;21.97;100493.78;1798525;79;21850;-79
2023/09/09 15:34:32;;;;;;;1.00;0.62;;;;;;;26.57;21.82;100492.11;1798011;79;21326;-78
2023/09/09 15:37:38;;;;;;;1.20;0.65;;;;;;;26.53;21.71;100505.84;1798289;79;21326;-78
2023/09/09 15:40:46;;;;;;;3.12;0.60;;;;;;;26.49;21.78;100518.20;1797114;79;21600;-78
2023/09/09 15:43:54;;;;;;;1.80;0.70;;;;;;;26.45;21.86;100520.44;1797499;79;21946;-79
2023/09/09 15:46:59;;;;;;;8.68;1.07;;;;;;;26.36;21.78;100520.09;1798488;79;21326;-78
2023/09/09 15:50:05;;;;;;;2.40;1.27;;;;;;;26.31;21.83;100521.48;1797991;79;21302;-78
2023/09/09 15:53:11;;;;;;;16.57;1.40;;;;;;;26.29;21.95;100518.66;1798573;79;21263;-77
2023/09/09 15:56:20;;;;;;;6.20;1.42;;;;;;;26.30;21.96;100525.94;1796678;79;21319;-78
2023/09/09 15:59:29;;;;;;;2.60;1.10;;;;;;;26.28;21.95;100533.23;1798578;79;21268;-78
2023/09/09 16:02:35;;;;;;;2.77;0.90;;;;;;;26.18;21.97;100548.06;1798295;79;21909;-78
2023/09/09 16:05:41;;;;;;;3.98;1.15;;;;;;;26.07;22.05;100540.73;1797910;79;21331;-78
2023/09/09 16:08:47;;;;;;;4.65;1.30;;;;;;;25.95;22.14;100535.91;1783121;79;21279;-78
2023/09/09 16:11:53;;;;;;;2.75;0.72;;;;;;;25.73;22.19;100545.83;1798786;79;21842;-78
2023/09/09 16:14:59;;;;;;;1.37;0.80;;;;;;;25.74;22.36;100544.18;1797234;79;22555;-78
2023/09/09 16:18:05;;;;;;;2.95;0.88;;;;;;;25.42;22.65;100558.81;1797193;79;21299;-77
2023/09/09 16:21:10;;;;;;;2.02;0.80;;;;;;;25.09;22.99;100567.78;1797249;79;21918;-78
2023/09/09 16:24:16;;;;;;;5.97;1.10;;;;;;;25.33;22.92;100561.81;1798340;79;21271;-78
2023/09/09 16:27:22;;;;;;;4.40;0.90;;;;;;;25.17;23.05;100567.30;1797056;79;21295;-78
2023/09/09 16:30:28;;;;;;;2.98;0.78;;;;;;;25.06;23.20;100567.42;1798473;79;21278;-79
2023/09/09 16:33:34;;;;;;;5.28;0.80;;;;;;;24.99;23.26;100578.30;1797019;79;21299;-79
2023/09/09 16:36:40;;;;;;;0.75;0.60;;;;;;;25.01;23.33;100578.02;1797056;79;21315;-79
2023/09/09 16:39:46;;;;;;;3.12;1.00;;;;;;;24.23;24.07;100588.05;1797562;79;21838;-78
2023/09/09 16:42:52;;;;;;;3.33;0.85;;;;;;;24.83;23.59;100593.22;1799081;79;21342;-78
2023/09/09 16:45:58;;;;;;;2.83;0.70;;;;;;;24.84;23.58;100603.33;1798371;79;21340;-78
2023/09/09 16:49:05;;;;;;;8.85;1.00;;;;;;;24.40;24.15;100603.92;1796945;79;21283;-78
2023/09/09 16:52:11;;;;;;;7.25;0.80;;;;;;;24.41;24.23;100600.02;1791908;79;21884;-78
2023/09/09 16:55:17;;;;;;;1.82;0.95;;;;;;;24.48;24.23;100611.30;1763310;81;21322;-78
2023/09/09 16:58:23;;;;;;;2.15;0.90;;;;;;;23.97;24.68;100613.94;1764550;81;21872;-78
2023/09/09 17:01:32;;;;;;;1.92;0.80;;;;;;;24.59;24.19;100622.60;1764378;81;21965;-79
2023/09/09 17:04:39;;;;;;;2.62;0.82;;;;;;;24.59;24.14;100622.05;1764392;81;21338;-79
2023/09/09 17:07:47;;;;;;;0.75;0.70;;;;;;;24.58;24.14;100632.95;1732747;82;21338;-77
2023/09/09 17:10:57;;;;;;;8.15;1.05;;;;;;;24.28;24.58;100636.70;1746387;81;21267;-78
2023/09/09 17:14:09;;;;;;;1.62;1.00;;;;;;;24.48;24.29;100637.86;1765030;81;21310;-79
2023/09/09 17:17:15;;;;;;;5.60;1.07;;;;;;;24.39;24.33;100638.58;1763714;81;21354;-78
2023/09/09 17:20:22;;;;;;;10.38;1.25;;;;;;;24.56;24.17;100644.95;1759188;81;21295;-78
2023/09/09 17:23:28;;;;;;;4.47;0.70;;;;;;;24.33;24.40;100650.77;1760154;81;21291;-78
2023/09/09 17:26:28;;;;;;;4.42;0.70;;;;;;;24.34;24.42;100653.30;1776304;80;21302;-78
2023/09/09 17:29:40;;;;;;;2.85;1.10;;;;;;;24.34;24.45;100659.45;1774877;80;21319;-78
2023/09/09 17:32:41;;;;;;;9.85;1.20;;;;;;;24.30;24.53;100660.52;1758756;81;21323;-78
2023/09/09 17:35:35;;;;;;;4.37;0.95;;;;;;;24.41;24.44;100661.52;1765589;81;21160;-79
2023/09/09 17:38:21;;;;;;;3.85;1.05;;;;;;;24.24;24.63;100662.95;1765733;81;21933;-79
2023/09/09 17:41:13;;;;;;;2.42;1.20;;;;;;;24.31;24.58;100669.73;1769354;81;21318;-79
2023/09/09 17:43:59;;;;;;;5.45;1.60;;;;;;;24.42;24.55;100674.41;1768943;81;22681;-79
2023/09/09 17:46:52;;;;;;;2.42;1.12;;;;;;;24.17;24.81;100673.45;1767644;81;21318;-79
2023/09/09 17:49:57;;;;;;;;;;;;;;;23.90;25.17;100673.33;1771554;81;21306;-79
2023/09/09 17:53:04;;;;;;;12.20;1.30;;;;;;;23.95;25.10;100679.02;1730792;82;20296;-79
2023/09/09 17:56:08;;;;;;;7.22;1.40;;;;;;;23.90;25.14;100672.80;1754514;81;21677;-79
2023/09/09 17:59:15;;;;;;;4.90;1.20;;;;;;;23.63;25.42;100674.00;1754099;81;21344;-79
2023/09/09 18:02:20;;;;;;;8.38;1.30;;;;;;;23.44;25.66;100679.54;1756162;81;21305;-79